sensor_id;sensor_type;location;lat;lon;timestamp;pressure;altitude;pressure_sealevel;temperature;humidity
7026;BME280;3554;42.132;24.786;2024-01-25T00:00:18;99626.16;;;4.06;100.00
7026;BME280;3554;42.132;24.786;2024-01-25T00:02:45;99611.72;;;3.84;100.00
7026;BME280;3554;42.132;24.786;2024-01-25T00:05:12;99631.78;;;3.62;100.00
7026;BME280;3554;42.132;24.786;2024-01-25T00:07:47;99577.75;;;3.29;100.00
7026;BME280;3554;42.132;24.786;2024-01-25T00:10:16;99565.09;;;2.93;100.00
7026;BME280;3554;42.132;24.786;2024-01-25T00:12:43;99546.84;;;3.08;100.00
7026;BME280;3554;42.132;24.786;2024-01-25T00:15:10;99486.94;;;2.59;100.00
7026;BME280;3554;42.132;24.786;2024-01-25T00:17:37;99559.78;;;3.08;100.00
7026;BME280;3554;42.132;24.786;2024-01-25T00:20:05;99569.97;;;3.26;100.00
7026;BME280;3554;42.132;24.786;2024-01-25T00:22:32;99573.22;;;3.52;100.00
7026;BME280;3554;42.132;24.786;2024-01-25T00:25:01;99584.69;;;3.21;100.00
7026;BME280;3554;42.132;24.786;2024-01-25T00:27:27;99566.69;;;3.04;100.00
7026;BME280;3554;42.132;24.786;2024-01-25T00:29:54;99575.28;;;3.12;100.00
7026;BME280;3554;42.132;24.786;2024-01-25T00:32:21;99565.19;;;2.81;100.00
7026;BME280;3554;42.132;24.786;2024-01-25T00:34:49;99524.00;;;2.52;100.00
7026;BME280;3554;42.132;24.786;2024-01-25T00:37:16;99572.97;;;2.72;100.00
7026;BME280;3554;42.132;24.786;2024-01-25T00:39:44;99568.88;;;2.32;100.00
7026;BME280;3554;42.132;24.786;2024-01-25T00:42:13;99566.34;;;2.26;100.00
7026;BME280;3554;42.132;24.786;2024-01-25T00:44:41;99538.72;;;2.35;100.00
7026;BME280;3554;42.132;24.786;2024-01-25T00:47:09;99554.09;;;2.62;100.00
7026;BME280;3554;42.132;24.786;2024-01-25T00:49:37;99537.72;;;2.63;100.00
7026;BME280;3554;42.132;24.786;2024-01-25T00:52:04;99537.63;;;2.78;100.00
7026;BME280;3554;42.132;24.786;2024-01-25T00:54:32;99547.09;;;2.81;100.00
7026;BME280;3554;42.132;24.786;2024-01-25T00:56:59;99519.53;;;2.77;100.00
7026;BME280;3554;42.132;24.786;2024-01-25T00:59:28;99514.16;;;3.01;100.00
7026;BME280;3554;42.132;24.786;2024-01-25T01:01:55;99537.31;;;3.17;100.00
7026;BME280;3554;42.132;24.786;2024-01-25T01:04:25;99534.69;;;3.22;100.00
7026;BME280;3554;42.132;24.786;2024-01-25T01:06:52;99518.22;;;3.32;100.00
7026;BME280;3554;42.132;24.786;2024-01-25T01:09:19;99514.66;;;3.45;100.00
7026;BME280;3554;42.132;24.786;2024-01-25T01:11:47;99516.28;;;3.54;100.00
7026;BME280;3554;42.132;24.786;2024-01-25T01:14:15;99493.72;;;3.66;100.00
7026;BME280;3554;42.132;24.786;2024-01-25T01:16:44;99484.53;;;4.09;100.00
7026;BME280;3554;42.132;24.786;2024-01-25T01:19:11;99473.88;;;4.33;100.00
7026;BME280;3554;42.132;24.786;2024-01-25T01:21:38;99469.13;;;4.63;100.00
7026;BME280;3554;42.132;24.786;2024-01-25T01:24:09;99466.19;;;4.84;100.00
7026;BME280;3554;42.132;24.786;2024-01-25T01:26:36;99467.38;;;5.15;100.00
7026;BME280;3554;42.132;24.786;2024-01-25T01:29:03;99470.50;;;5.35;100.00
7026;BME280;3554;42.132;24.786;2024-01-25T01:31:30;99448.25;;;5.68;100.00
7026;BME280;3554;42.132;24.786;2024-01-25T01:33:58;99457.09;;;6.00;100.00
7026;BME280;3554;42.132;24.786;2024-01-25T01:36:25;99447.56;;;6.40;100.00
7026;BME280;3554;42.132;24.786;2024-01-25T01:38:52;99422.44;;;6.76;100.00
7026;BME280;3554;42.132;24.786;2024-01-25T01:41:19;99436.56;;;7.00;100.00
7026;BME280;3554;42.132;24.786;2024-01-25T01:43:47;99431.22;;;7.06;100.00
7026;BME280;3554;42.132;24.786;2024-01-25T01:46:26;99432.41;;;7.28;100.00
7026;BME280;3554;42.132;24.786;2024-01-25T01:48:58;99428.69;;;7.36;100.00
7026;BME280;3554;42.132;24.786;2024-01-25T01:51:25;99438.03;;;7.43;100.00
7026;BME280;3554;42.132;24.786;2024-01-25T01:53:53;99456.78;;;7.56;100.00
7026;BME280;3554;42.132;24.786;2024-01-25T01:56:22;99443.03;;;7.51;100.00
7026;BME280;3554;42.132;24.786;2024-01-25T01:58:51;99440.31;;;7.55;100.00
7026;BME280;3554;42.132;24.786;2024-01-25T02:01:20;99406.66;;;7.48;100.00
7026;BME280;3554;42.132;24.786;2024-01-25T02:03:47;99436.47;;;7.69;100.00
7026;BME280;3554;42.132;24.786;2024-01-25T02:06:15;99435.34;;;7.77;100.00
7026;BME280;3554;42.132;24.786;2024-01-25T02:08:43;99437.81;;;7.83;100.00
7026;BME280;3554;42.132;24.786;2024-01-25T02:11:12;99389.03;;;7.57;100.00
7026;BME280;3554;42.132;24.786;2024-01-25T02:13:39;99400.31;;;7.58;100.00
7026;BME280;3554;42.132;24.786;2024-01-25T02:16:07;99431.03;;;7.76;100.00
7026;BME280;3554;42.132;24.786;2024-01-25T02:18:34;99388.00;;;7.63;100.00
7026;BME280;3554;42.132;24.786;2024-01-25T02:21:02;99380.25;;;7.62;100.00
7026;BME280;3554;42.132;24.786;2024-01-25T02:23:30;99414.16;;;7.89;100.00
7026;BME280;3554;42.132;24.786;2024-01-25T02:25:57;99334.47;;;7.53;100.00
7026;BME280;3554;42.132;24.786;2024-01-25T02:28:24;99411.59;;;8.17;100.00
7026;BME280;3554;42.132;24.786;2024-01-25T02:30:51;99406.97;;;8.26;100.00
7026;BME280;3554;42.132;24.786;2024-01-25T02:33:18;99396.13;;;8.40;100.00
7026;BME280;3554;42.132;24.786;2024-01-25T02:35:45;99399.28;;;8.49;100.00
7026;BME280;3554;42.132;24.786;2024-01-25T02:38:12;99388.03;;;8.47;100.00
7026;BME280;3554;42.132;24.786;2024-01-25T02:40:40;99408.72;;;8.53;100.00
7026;BME280;3554;42.132;24.786;2024-01-25T02:43:08;99378.00;;;8.35;100.00
7026;BME280;3554;42.132;24.786;2024-01-25T02:45:35;99392.97;;;8.56;100.00
7026;BME280;3554;42.132;24.786;2024-01-25T02:48:02;99344.97;;;8.36;100.00
7026;BME280;3554;42.132;24.786;2024-01-25T02:50:30;99387.31;;;8.70;100.00
7026;BME280;3554;42.132;24.786;2024-01-25T02:52:57;99378.16;;;8.83;100.00
7026;BME280;3554;42.132;24.786;2024-01-25T02:55:24;99383.31;;;8.85;100.00
7026;BME280;3554;42.132;24.786;2024-01-25T02:57:52;99377.06;;;8.90;100.00
7026;BME280;3554;42.132;24.786;2024-01-25T03:00:19;99383.78;;;8.97;100.00
7026;BME280;3554;42.132;24.786;2024-01-25T03:02:46;99375.69;;;9.05;100.00
7026;BME280;3554;42.132;24.786;2024-01-25T03:05:13;99372.81;;;9.12;100.00
7026;BME280;3554;42.132;24.786;2024-01-25T03:07:40;99367.41;;;9.18;100.00
7026;BME280;3554;42.132;24.786;2024-01-25T03:10:08;99380.34;;;9.21;100.00
7026;BME280;3554;42.132;24.786;2024-01-25T03:12:35;99378.41;;;9.26;100.00
7026;BME280;3554;42.132;24.786;2024-01-25T03:15:04;99363.47;;;9.30;100.00
7026;BME280;3554;42.132;24.786;2024-01-25T03:17:32;99352.28;;;9.26;100.00
7026;BME280;3554;42.132;24.786;2024-01-25T03:19:58;99354.75;;;9.31;100.00
7026;BME280;3554;42.132;24.786;2024-01-25T03:22:25;99364.75;;;9.43;100.00
7026;BME280;3554;42.132;24.786;2024-01-25T03:24:52;99352.44;;;9.46;100.00
7026;BME280;3554;42.132;24.786;2024-01-25T03:27:19;99352.09;;;9.55;100.00
7026;BME280;3554;42.132;24.786;2024-01-25T03:29:46;99344.88;;;9.62;100.00
7026;BME280;3554;42.132;24.786;2024-01-25T03:32:15;99336.84;;;9.66;100.00
7026;BME280;3554;42.132;24.786;2024-01-25T03:34:42;99356.81;;;9.69;100.00
7026;BME280;3554;42.132;24.786;2024-01-25T03:37:09;99355.28;;;9.63;100.00
7026;BME280;3554;42.132;24.786;2024-01-25T03:39:36;99352.59;;;9.65;100.00
7026;BME280;3554;42.132;24.786;2024-01-25T03:42:03;99346.03;;;9.55;100.00
7026;BME280;3554;42.132;24.786;2024-01-25T03:44:30;99347.16;;;9.48;100.00
7026;BME280;3554;42.132;24.786;2024-01-25T03:46:57;99339.66;;;9.39;100.00
7026;BME280;3554;42.132;24.786;2024-01-25T03:49:25;99347.88;;;9.28;100.00
7026;BME280;3554;42.132;24.786;2024-01-25T03:51:52;99346.38;;;9.21;100.00
7026;BME280;3554;42.132;24.786;2024-01-25T03:54:19;99341.66;;;9.08;100.00
7026;BME280;3554;42.132;24.786;2024-01-25T03:56:46;99377.66;;;9.23;100.00
7026;BME280;3554;42.132;24.786;2024-01-25T03:59:13;99384.56;;;9.24;100.00
7026;BME280;3554;42.132;24.786;2024-01-25T04:01:43;99376.75;;;9.24;100.00
7026;BME280;3554;42.132;24.786;2024-01-25T04:04:13;99381.06;;;9.25;100.00
7026;BME280;3554;42.132;24.786;2024-01-25T04:06:42;99333.28;;;8.98;100.00
7026;BME280;3554;42.132;24.786;2024-01-25T04:09:11;99360.13;;;9.26;100.00
7026;BME280;3554;42.132;24.786;2024-01-25T04:11:38;99352.09;;;9.32;100.00
7026;BME280;3554;42.132;24.786;2024-01-25T04:14:05;99356.88;;;9.44;100.00
7026;BME280;3554;42.132;24.786;2024-01-25T04:16:33;99321.50;;;9.59;100.00
7026;BME280;3554;42.132;24.786;2024-01-25T04:19:00;99346.56;;;9.86;100.00
7026;BME280;3554;42.132;24.786;2024-01-25T04:21:27;99348.06;;;9.93;100.00
7026;BME280;3554;42.132;24.786;2024-01-25T04:23:56;99359.13;;;10.00;100.00
7026;BME280;3554;42.132;24.786;2024-01-25T04:26:23;99356.31;;;10.04;100.00
7026;BME280;3554;42.132;24.786;2024-01-25T04:28:50;99370.44;;;10.00;100.00
7026;BME280;3554;42.132;24.786;2024-01-25T04:31:17;99400.09;;;9.99;100.00
7026;BME280;3554;42.132;24.786;2024-01-25T04:33:44;99402.91;;;9.95;100.00
7026;BME280;3554;42.132;24.786;2024-01-25T04:36:11;99404.38;;;10.02;100.00
7026;BME280;3554;42.132;24.786;2024-01-25T04:38:38;99403.50;;;10.01;100.00
7026;BME280;3554;42.132;24.786;2024-01-25T04:41:07;99377.38;;;10.01;100.00
7026;BME280;3554;42.132;24.786;2024-01-25T04:43:34;99388.84;;;9.97;100.00
7026;BME280;3554;42.132;24.786;2024-01-25T04:46:02;99375.78;;;9.97;100.00
7026;BME280;3554;42.132;24.786;2024-01-25T04:48:29;99368.84;;;9.96;100.00
7026;BME280;3554;42.132;24.786;2024-01-25T04:50:56;99350.09;;;9.85;100.00
7026;BME280;3554;42.132;24.786;2024-01-25T04:53:23;99378.69;;;9.90;100.00
7026;BME280;3554;42.132;24.786;2024-01-25T04:55:50;99359.31;;;9.72;100.00
7026;BME280;3554;42.132;24.786;2024-01-25T04:58:19;99379.03;;;9.81;100.00
7026;BME280;3554;42.132;24.786;2024-01-25T05:00:46;99392.50;;;9.70;100.00
7026;BME280;3554;42.132;24.786;2024-01-25T05:03:13;99371.59;;;9.70;100.00
7026;BME280;3554;42.132;24.786;2024-01-25T05:05:40;99365.50;;;9.69;100.00
7026;BME280;3554;42.132;24.786;2024-01-25T05:08:07;99380.28;;;9.70;100.00
7026;BME280;3554;42.132;24.786;2024-01-25T05:10:34;99379.19;;;9.76;100.00
7026;BME280;3554;42.132;24.786;2024-01-25T05:13:01;99387.03;;;9.76;100.00
7026;BME280;3554;42.132;24.786;2024-01-25T05:15:29;99391.25;;;9.80;100.00
7026;BME280;3554;42.132;24.786;2024-01-25T05:17:56;99384.88;;;9.87;100.00
7026;BME280;3554;42.132;24.786;2024-01-25T05:20:23;99372.59;;;9.89;100.00
7026;BME280;3554;42.132;24.786;2024-01-25T05:22:57;99377.94;;;9.86;100.00
7026;BME280;3554;42.132;24.786;2024-01-25T05:25:24;99391.13;;;9.83;100.00
7026;BME280;3554;42.132;24.786;2024-01-25T05:27:51;99401.47;;;9.86;100.00
7026;BME280;3554;42.132;24.786;2024-01-25T05:30:19;99393.63;;;9.86;100.00
7026;BME280;3554;42.132;24.786;2024-01-25T05:32:47;99389.97;;;9.90;100.00
7026;BME280;3554;42.132;24.786;2024-01-25T05:35:15;99395.13;;;9.93;100.00
7026;BME280;3554;42.132;24.786;2024-01-25T05:37:43;99358.56;;;9.92;100.00
7026;BME280;3554;42.132;24.786;2024-01-25T05:40:10;99376.34;;;10.05;100.00
7026;BME280;3554;42.132;24.786;2024-01-25T05:42:38;99376.13;;;10.11;100.00
7026;BME280;3554;42.132;24.786;2024-01-25T05:45:06;99378.38;;;10.20;100.00
7026;BME280;3554;42.132;24.786;2024-01-25T05:47:34;99382.09;;;10.15;100.00
7026;BME280;3554;42.132;24.786;2024-01-25T05:50:03;99390.44;;;10.24;100.00
7026;BME280;3554;42.132;24.786;2024-01-25T05:52:30;99370.25;;;10.28;100.00
7026;BME280;3554;42.132;24.786;2024-01-25T05:54:57;99388.44;;;10.31;100.00
7026;BME280;3554;42.132;24.786;2024-01-25T05:57:24;99394.38;;;10.34;100.00
7026;BME280;3554;42.132;24.786;2024-01-25T05:59:51;99389.97;;;10.36;100.00
7026;BME280;3554;42.132;24.786;2024-01-25T06:02:18;99394.28;;;10.37;100.00
7026;BME280;3554;42.132;24.786;2024-01-25T06:04:45;99389.84;;;10.39;100.00
7026;BME280;3554;42.132;24.786;2024-01-25T06:07:14;99384.78;;;10.35;100.00
7026;BME280;3554;42.132;24.786;2024-01-25T06:09:41;99399.75;;;10.31;100.00
7026;BME280;3554;42.132;24.786;2024-01-25T06:12:08;99395.44;;;10.30;100.00
7026;BME280;3554;42.132;24.786;2024-01-25T06:14:35;99404.13;;;10.31;100.00
7026;BME280;3554;42.132;24.786;2024-01-25T06:17:02;99426.03;;;10.28;100.00
7026;BME280;3554;42.132;24.786;2024-01-25T06:19:29;99416.94;;;10.15;100.00
7026;BME280;3554;42.132;24.786;2024-01-25T06:21:57;99435.19;;;10.17;100.00
7026;BME280;3554;42.132;24.786;2024-01-25T06:24:25;99436.38;;;10.08;100.00
7026;BME280;3554;42.132;24.786;2024-01-25T06:26:53;99417.38;;;10.03;100.00
7026;BME280;3554;42.132;24.786;2024-01-25T06:29:20;99412.31;;;9.99;100.00
7026;BME280;3554;42.132;24.786;2024-01-25T06:31:47;99415.13;;;9.94;100.00
7026;BME280;3554;42.132;24.786;2024-01-25T06:34:14;99420.28;;;9.96;100.00
7026;BME280;3554;42.132;24.786;2024-01-25T06:36:41;99405.41;;;9.98;100.00
7026;BME280;3554;42.132;24.786;2024-01-25T06:39:08;99430.47;;;10.03;100.00
7026;BME280;3554;42.132;24.786;2024-01-25T06:41:36;99412.16;;;10.03;100.00
7026;BME280;3554;42.132;24.786;2024-01-25T06:44:04;99429.78;;;9.98;100.00
7026;BME280;3554;42.132;24.786;2024-01-25T06:46:30;99428.53;;;10.08;100.00
7026;BME280;3554;42.132;24.786;2024-01-25T06:48:58;99429.22;;;10.13;100.00
7026;BME280;3554;42.132;24.786;2024-01-25T06:51:25;99430.94;;;10.14;100.00
7026;BME280;3554;42.132;24.786;2024-01-25T06:53:52;99426.13;;;10.25;100.00
7026;BME280;3554;42.132;24.786;2024-01-25T06:56:19;99425.28;;;10.48;100.00
7026;BME280;3554;42.132;24.786;2024-01-25T06:58:48;99433.59;;;10.57;100.00
7026;BME280;3554;42.132;24.786;2024-01-25T07:01:20;99433.34;;;10.63;100.00
7026;BME280;3554;42.132;24.786;2024-01-25T07:03:47;99460.88;;;10.73;100.00
7026;BME280;3554;42.132;24.786;2024-01-25T07:06:16;99459.25;;;10.71;100.00
7026;BME280;3554;42.132;24.786;2024-01-25T07:08:43;99448.88;;;10.68;100.00
7026;BME280;3554;42.132;24.786;2024-01-25T07:11:10;99446.38;;;10.65;100.00
7026;BME280;3554;42.132;24.786;2024-01-25T07:13:37;99445.94;;;10.54;100.00
7026;BME280;3554;42.132;24.786;2024-01-25T07:16:06;99432.84;;;10.54;100.00
7026;BME280;3554;42.132;24.786;2024-01-25T07:18:33;99450.34;;;10.53;100.00
7026;BME280;3554;42.132;24.786;2024-01-25T07:21:00;99441.19;;;10.42;100.00
7026;BME280;3554;42.132;24.786;2024-01-25T07:23:29;99462.72;;;10.48;100.00
7026;BME280;3554;42.132;24.786;2024-01-25T07:25:56;99455.94;;;10.44;100.00
7026;BME280;3554;42.132;24.786;2024-01-25T07:28:23;99460.81;;;10.53;100.00
7026;BME280;3554;42.132;24.786;2024-01-25T07:30:50;99460.50;;;10.61;100.00
7026;BME280;3554;42.132;24.786;2024-01-25T07:33:18;99472.63;;;10.63;100.00
7026;BME280;3554;42.132;24.786;2024-01-25T07:35:45;99461.66;;;10.75;100.00
7026;BME280;3554;42.132;24.786;2024-01-25T07:38:13;99465.13;;;10.98;100.00
7026;BME280;3554;42.132;24.786;2024-01-25T07:40:40;99451.00;;;11.02;100.00
7026;BME280;3554;42.132;24.786;2024-01-25T07:43:07;99472.72;;;11.04;100.00
7026;BME280;3554;42.132;24.786;2024-01-25T07:45:34;99475.97;;;10.89;100.00
7026;BME280;3554;42.132;24.786;2024-01-25T07:48:01;99469.09;;;10.86;100.00
7026;BME280;3554;42.132;24.786;2024-01-25T07:50:30;99475.19;;;10.87;100.00
7026;BME280;3554;42.132;24.786;2024-01-25T07:52:56;99483.69;;;10.92;100.00
7026;BME280;3554;42.132;24.786;2024-01-25T07:55:26;99454.44;;;10.82;100.00
7026;BME280;3554;42.132;24.786;2024-01-25T07:57:55;99458.16;;;10.97;100.00
7026;BME280;3554;42.132;24.786;2024-01-25T08:00:22;99478.41;;;11.35;100.00
7026;BME280;3554;42.132;24.786;2024-01-25T08:02:49;99498.28;;;11.40;100.00
7026;BME280;3554;42.132;24.786;2024-01-25T08:05:16;99473.66;;;11.44;100.00
7026;BME280;3554;42.132;24.786;2024-01-25T08:07:46;99461.13;;;11.51;100.00
7026;BME280;3554;42.132;24.786;2024-01-25T08:10:14;99453.47;;;11.66;100.00
7026;BME280;3554;42.132;24.786;2024-01-25T08:12:41;99433.09;;;11.73;100.00
7026;BME280;3554;42.132;24.786;2024-01-25T08:15:10;99447.97;;;11.72;100.00
7026;BME280;3554;42.132;24.786;2024-01-25T08:17:37;99410.56;;;11.69;100.00
7026;BME280;3554;42.132;24.786;2024-01-25T08:20:05;99425.56;;;11.65;100.00
7026;BME280;3554;42.132;24.786;2024-01-25T08:22:35;99421.81;;;11.71;100.00
7026;BME280;3554;42.132;24.786;2024-01-25T08:25:05;99424.94;;;11.79;100.00
7026;BME280;3554;42.132;24.786;2024-01-25T08:27:33;99436.94;;;11.84;100.00
7026;BME280;3554;42.132;24.786;2024-01-25T08:30:00;99432.41;;;11.88;100.00
7026;BME280;3554;42.132;24.786;2024-01-25T08:32:28;99432.47;;;12.05;100.00
7026;BME280;3554;42.132;24.786;2024-01-25T08:34:55;99395.84;;;12.04;100.00
7026;BME280;3554;42.132;24.786;2024-01-25T08:37:22;99424.50;;;12.08;100.00
7026;BME280;3554;42.132;24.786;2024-01-25T08:39:49;99391.72;;;11.98;100.00
7026;BME280;3554;42.132;24.786;2024-01-25T08:42:18;99382.56;;;11.88;100.00
7026;BME280;3554;42.132;24.786;2024-01-25T08:44:46;99415.41;;;11.97;100.00
7026;BME280;3554;42.132;24.786;2024-01-25T08:47:15;99387.88;;;11.87;100.00
7026;BME280;3554;42.132;24.786;2024-01-25T08:49:42;99402.69;;;11.88;100.00
7026;BME280;3554;42.132;24.786;2024-01-25T08:52:09;99412.22;;;11.90;100.00
7026;BME280;3554;42.132;24.786;2024-01-25T08:54:36;99413.63;;;11.97;100.00
7026;BME280;3554;42.132;24.786;2024-01-25T08:57:04;99414.25;;;12.02;100.00
7026;BME280;3554;42.132;24.786;2024-01-25T08:59:34;99418.63;;;12.03;100.00
7026;BME280;3554;42.132;24.786;2024-01-25T09:02:03;99406.19;;;12.07;100.00
7026;BME280;3554;42.132;24.786;2024-01-25T09:04:31;99405.03;;;12.12;100.00
7026;BME280;3554;42.132;24.786;2024-01-25T09:06:58;99419.66;;;11.99;100.00
7026;BME280;3554;42.132;24.786;2024-01-25T09:09:25;99432.97;;;11.76;100.00
7026;BME280;3554;42.132;24.786;2024-01-25T09:11:52;99437.00;;;11.83;100.00
7026;BME280;3554;42.132;24.786;2024-01-25T09:14:19;99436.06;;;11.84;100.00
7026;BME280;3554;42.132;24.786;2024-01-25T09:16:48;99448.72;;;11.95;100.00
7026;BME280;3554;42.132;24.786;2024-01-25T09:19:15;99450.00;;;12.05;100.00
7026;BME280;3554;42.132;24.786;2024-01-25T09:21:42;99437.88;;;12.02;100.00
7026;BME280;3554;42.132;24.786;2024-01-25T09:24:09;99457.28;;;11.98;100.00
7026;BME280;3554;42.132;24.786;2024-01-25T09:26:37;99447.66;;;11.99;100.00
7026;BME280;3554;42.132;24.786;2024-01-25T09:29:04;99451.50;;;12.10;100.00
7026;BME280;3554;42.132;24.786;2024-01-25T09:31:31;99454.78;;;12.15;100.00
7026;BME280;3554;42.132;24.786;2024-01-25T09:33:59;99471.00;;;12.05;100.00
7026;BME280;3554;42.132;24.786;2024-01-25T09:36:26;99444.88;;;12.02;100.00
7026;BME280;3554;42.132;24.786;2024-01-25T09:38:53;99448.28;;;12.04;100.00
7026;BME280;3554;42.132;24.786;2024-01-25T09:41:20;99438.31;;;12.12;100.00
7026;BME280;3554;42.132;24.786;2024-01-25T09:43:47;99460.09;;;12.32;100.00
7026;BME280;3554;42.132;24.786;2024-01-25T09:46:15;99419.94;;;12.30;100.00
7026;BME280;3554;42.132;24.786;2024-01-25T09:48:42;99456.84;;;12.46;100.00
7026;BME280;3554;42.132;24.786;2024-01-25T09:51:13;99450.72;;;12.45;100.00
7026;BME280;3554;42.132;24.786;2024-01-25T09:53:40;99442.34;;;12.56;100.00
7026;BME280;3554;42.132;24.786;2024-01-25T09:56:08;99460.38;;;12.45;100.00
7026;BME280;3554;42.132;24.786;2024-01-25T09:58:39;99449.88;;;12.63;100.00
7026;BME280;3554;42.132;24.786;2024-01-25T10:01:11;99456.47;;;12.53;100.00
7026;BME280;3554;42.132;24.786;2024-01-25T10:03:39;99452.84;;;12.56;100.00
7026;BME280;3554;42.132;24.786;2024-01-25T10:06:08;99468.25;;;12.45;100.00
7026;BME280;3554;42.132;24.786;2024-01-25T10:08:37;99440.50;;;12.39;100.00
7026;BME280;3554;42.132;24.786;2024-01-25T10:11:04;99429.59;;;12.30;100.00
7026;BME280;3554;42.132;24.786;2024-01-25T10:13:31;99447.97;;;12.30;100.00
7026;BME280;3554;42.132;24.786;2024-01-25T10:15:58;99436.91;;;12.42;100.00
7026;BME280;3554;42.132;24.786;2024-01-25T10:18:25;99380.88;;;12.06;100.00
7026;BME280;3554;42.132;24.786;2024-01-25T10:20:53;99443.84;;;12.43;100.00
7026;BME280;3554;42.132;24.786;2024-01-25T10:23:20;99423.06;;;12.38;100.00
7026;BME280;3554;42.132;24.786;2024-01-25T10:25:49;99436.03;;;12.60;100.00
7026;BME280;3554;42.132;24.786;2024-01-25T10:28:16;99436.56;;;12.49;100.00
7026;BME280;3554;42.132;24.786;2024-01-25T10:30:43;99420.50;;;12.55;100.00
7026;BME280;3554;42.132;24.786;2024-01-25T10:33:10;99388.31;;;12.33;100.00
7026;BME280;3554;42.132;24.786;2024-01-25T10:35:38;99412.94;;;12.49;100.00
7026;BME280;3554;42.132;24.786;2024-01-25T10:38:07;99408.28;;;12.54;100.00
7026;BME280;3554;42.132;24.786;2024-01-25T10:40:35;99410.13;;;12.52;100.00
7026;BME280;3554;42.132;24.786;2024-01-25T10:43:04;99401.84;;;12.43;100.00
7026;BME280;3554;42.132;24.786;2024-01-25T10:45:31;99411.34;;;12.45;100.00
7026;BME280;3554;42.132;24.786;2024-01-25T10:47:59;99348.19;;;12.48;100.00
7026;BME280;3554;42.132;24.786;2024-01-25T10:50:26;99403.47;;;12.81;100.00
7026;BME280;3554;42.132;24.786;2024-01-25T10:52:53;99400.16;;;12.77;100.00
7026;BME280;3554;42.132;24.786;2024-01-25T10:55:21;99409.47;;;12.66;100.00
7026;BME280;3554;42.132;24.786;2024-01-25T10:57:48;99402.84;;;12.40;100.00
7026;BME280;3554;42.132;24.786;2024-01-25T11:00:17;99391.50;;;12.40;100.00
7026;BME280;3554;42.132;24.786;2024-01-25T11:02:45;99380.56;;;12.30;100.00
7026;BME280;3554;42.132;24.786;2024-01-25T11:05:14;99353.84;;;12.22;100.00
7026;BME280;3554;42.132;24.786;2024-01-25T11:07:43;99381.94;;;12.20;100.00
7026;BME280;3554;42.132;24.786;2024-01-25T11:10:17;99382.00;;;12.19;100.00
7026;BME280;3554;42.132;24.786;2024-01-25T11:12:51;99402.94;;;12.20;100.00
7026;BME280;3554;42.132;24.786;2024-01-25T11:15:22;99383.00;;;12.16;100.00
7026;BME280;3554;42.132;24.786;2024-01-25T11:17:56;99342.75;;;11.80;100.00
7026;BME280;3554;42.132;24.786;2024-01-25T11:20:24;99403.16;;;12.16;100.00
7026;BME280;3554;42.132;24.786;2024-01-25T11:22:56;99374.06;;;12.02;100.00
7026;BME280;3554;42.132;24.786;2024-01-25T11:25:27;99418.72;;;12.37;100.00
7026;BME280;3554;42.132;24.786;2024-01-25T11:27:54;99407.59;;;12.32;100.00
7026;BME280;3554;42.132;24.786;2024-01-25T11:30:23;99422.28;;;12.36;100.00
7026;BME280;3554;42.132;24.786;2024-01-25T11:32:50;99410.38;;;12.29;100.00
7026;BME280;3554;42.132;24.786;2024-01-25T11:35:17;99417.66;;;12.41;100.00
7026;BME280;3554;42.132;24.786;2024-01-25T11:37:44;99422.22;;;12.38;100.00
7026;BME280;3554;42.132;24.786;2024-01-25T11:40:12;99420.44;;;12.38;100.00
7026;BME280;3554;42.132;24.786;2024-01-25T11:42:41;99397.94;;;12.14;100.00
7026;BME280;3554;42.132;24.786;2024-01-25T11:45:10;99409.81;;;12.23;100.00
7026;BME280;3554;42.132;24.786;2024-01-25T11:47:39;99364.84;;;12.12;100.00
7026;BME280;3554;42.132;24.786;2024-01-25T11:50:08;99402.63;;;12.45;100.00
7026;BME280;3554;42.132;24.786;2024-01-25T11:52:36;99391.06;;;12.49;100.00
7026;BME280;3554;42.132;24.786;2024-01-25T11:55:06;99384.16;;;12.65;100.00
7026;BME280;3554;42.132;24.786;2024-01-25T11:57:35;99373.41;;;12.69;100.00
7026;BME280;3554;42.132;24.786;2024-01-25T12:00:04;99377.53;;;12.92;100.00
7026;BME280;3554;42.132;24.786;2024-01-25T12:02:32;99385.88;;;12.83;100.00
7026;BME280;3554;42.132;24.786;2024-01-25T12:05:02;99357.22;;;12.96;100.00
7026;BME280;3554;42.132;24.786;2024-01-25T12:07:29;99379.59;;;12.85;100.00
7026;BME280;3554;42.132;24.786;2024-01-25T12:09:58;99359.16;;;12.92;100.00
7026;BME280;3554;42.132;24.786;2024-01-25T12:12:25;99378.53;;;12.89;100.00
7026;BME280;3554;42.132;24.786;2024-01-25T12:14:57;99357.28;;;12.77;100.00
7026;BME280;3554;42.132;24.786;2024-01-25T12:17:26;99327.53;;;12.59;100.00
7026;BME280;3554;42.132;24.786;2024-01-25T12:19:55;99387.81;;;12.97;100.00
7026;BME280;3554;42.132;24.786;2024-01-25T12:22:23;99393.44;;;12.89;100.00
7026;BME280;3554;42.132;24.786;2024-01-25T12:24:53;99399.84;;;12.83;100.00
7026;BME280;3554;42.132;24.786;2024-01-25T12:27:20;99365.59;;;12.68;100.00
7026;BME280;3554;42.132;24.786;2024-01-25T12:29:48;99381.25;;;12.52;100.00
7026;BME280;3554;42.132;24.786;2024-01-25T12:32:15;99390.09;;;12.33;100.00
7026;BME280;3554;42.132;24.786;2024-01-25T12:34:42;99377.66;;;12.36;100.00
7026;BME280;3554;42.132;24.786;2024-01-25T12:37:09;99398.03;;;12.31;100.00
7026;BME280;3554;42.132;24.786;2024-01-25T12:39:37;99392.56;;;12.36;100.00
7026;BME280;3554;42.132;24.786;2024-01-25T12:42:05;99378.22;;;12.43;100.00
7026;BME280;3554;42.132;24.786;2024-01-25T12:44:32;99357.81;;;12.31;100.00
7026;BME280;3554;42.132;24.786;2024-01-25T12:46:59;99386.84;;;12.28;100.00
7026;BME280;3554;42.132;24.786;2024-01-25T12:49:28;99375.19;;;12.33;100.00
7026;BME280;3554;42.132;24.786;2024-01-25T12:51:55;99386.53;;;12.34;100.00
7026;BME280;3554;42.132;24.786;2024-01-25T12:54:22;99378.72;;;12.32;100.00
7026;BME280;3554;42.132;24.786;2024-01-25T12:56:51;99369.44;;;12.25;100.00
7026;BME280;3554;42.132;24.786;2024-01-25T12:59:17;99348.75;;;12.19;100.00
7026;BME280;3554;42.132;24.786;2024-01-25T13:01:44;99372.16;;;12.24;100.00
7026;BME280;3554;42.132;24.786;2024-01-25T13:04:11;99374.84;;;12.22;100.00
7026;BME280;3554;42.132;24.786;2024-01-25T13:06:39;99365.66;;;12.14;100.00